Time;durP1;ratioP1;P1;durP2;ratioP2;P2;SDS_P1;SDS_P2;PMS_P1;PMS_P2;Temp;Humidity;BMP_temperature;BMP_pressure;BME280_temperature;BME280_humidity;BME280_pressure;Samples;Min_cycle;Max_cycle;Signal;HPM_P1;HPM_P2
2022/06/29 00:01:17;;;;;;;1.10;0.80;;;;;;;21.48;nan;100344.69;5029935;28;20037;-73
2022/06/29 00:03:45;;;;;;;2.03;0.90;;;;;;;21.48;nan;100342.00;5030045;28;20107;-73
2022/06/29 00:06:10;;;;;;;1.42;0.70;;;;;;;21.46;nan;100342.22;5031132;28;20426;-73
2022/06/29 00:08:35;;;;;;;1.92;0.85;;;;;;;21.43;nan;100345.38;5031485;28;20448;-73
2022/06/29 00:11:01;;;;;;;1.85;0.80;;;;;;;21.44;nan;100336.25;5030643;28;20042;-73
2022/06/29 00:13:26;;;;;;;1.33;0.80;;;;;;;21.42;nan;100339.16;5025592;28;20724;-73
2022/06/29 00:15:51;;;;;;;1.73;0.85;;;;;;;21.41;nan;100331.31;5025343;28;20044;-74
2022/06/29 00:18:17;;;;;;;1.90;0.90;;;;;;;21.39;nan;100331.53;5029247;28;20147;-74
2022/06/29 00:20:42;;;;;;;1.83;0.88;;;;;;;21.40;nan;100335.03;5029221;28;20280;-73
2022/06/29 00:23:07;;;;;;;1.40;0.70;;;;;;;21.40;nan;100330.50;5029048;28;20045;-73
2022/06/29 00:25:33;;;;;;;1.40;0.90;;;;;;;21.42;nan;100328.38;5028492;28;20740;-74
2022/06/29 00:27:58;;;;;;;2.35;0.93;;;;;;;21.44;nan;100322.78;5032224;28;20174;-73
2022/06/29 00:30:23;;;;;;;1.67;0.90;;;;;;;21.41;nan;100326.75;5029328;28;20098;-73
2022/06/29 00:32:48;;;;;;;1.85;1.20;;;;;;;21.43;nan;100318.47;5030098;28;20041;-73
2022/06/29 00:35:14;;;;;;;2.65;0.90;;;;;;;21.42;nan;100322.19;5029736;28;20072;-73
2022/06/29 00:37:39;;;;;;;2.33;0.93;;;;;;;21.43;nan;100323.84;5032050;28;20029;-73
2022/06/29 00:40:05;;;;;;;2.70;1.00;;;;;;;21.44;nan;100320.09;5034108;28;20045;-73
2022/06/29 00:42:31;;;;;;;1.60;0.90;;;;;;;21.44;nan;100328.16;5008694;28;20449;-73
2022/06/29 00:44:57;;;;;;;1.23;0.75;;;;;;;21.41;nan;100318.69;5017447;28;20099;-73
2022/06/29 00:47:23;;;;;;;1.45;0.73;;;;;;;21.45;nan;100320.91;5029017;28;20037;-73
2022/06/29 00:49:48;;;;;;;1.02;0.80;;;;;;;21.43;nan;100323.84;5029799;28;20134;-74
2022/06/29 00:52:15;;;;;;;2.22;0.80;;;;;;;21.42;nan;100323.00;5028925;28;20029;-73
2022/06/29 00:54:46;;;;;;;1.98;0.93;;;;;;;21.42;nan;100323.00;5030460;28;20037;-73
2022/06/29 00:57:15;;;;;;;2.15;1.02;;;;;;;21.44;nan;100321.97;5032794;28;20025;-74
2022/06/29 00:59:47;;;;;;;1.70;0.80;;;;;;;21.42;nan;100319.50;5031371;28;20502;-73
2022/06/29 01:02:14;;;;;;;1.45;0.82;;;;;;;21.42;nan;100327.56;5031743;28;20057;-72
2022/06/29 01:04:40;;;;;;;1.70;0.90;;;;;;;21.43;nan;100323.84;5031542;28;20124;-73
2022/06/29 01:07:06;;;;;;;1.83;1.00;;;;;;;21.45;nan;100323.59;5032007;28;20390;-74
2022/06/29 01:09:31;;;;;;;2.55;0.90;;;;;;;21.44;nan;100316.59;5029270;28;20026;-73
2022/06/29 01:11:58;;;;;;;2.53;1.00;;;;;;;21.44;nan;100316.59;5029507;28;20179;-74
2022/06/29 01:14:23;;;;;;;2.53;1.13;;;;;;;21.45;nan;100328.97;5027902;28;20043;-74
2022/06/29 01:16:49;;;;;;;3.15;1.30;;;;;;;21.43;nan;100318.47;5029510;28;20398;-73
2022/06/29 01:19:14;;;;;;;4.05;1.70;;;;;;;21.43;nan;100321.16;5028468;28;20052;-73
2022/06/29 01:21:42;;;;;;;4.00;1.40;;;;;;;21.48;nan;100318.59;5029455;28;20045;-75
2022/06/29 01:24:07;;;;;;;3.67;1.40;;;;;;;21.41;nan;100310.63;5028376;28;20113;-73
2022/06/29 01:26:32;;;;;;;2.63;1.00;;;;;;;21.34;nan;100312.56;5027640;28;20116;-73
2022/06/29 01:28:58;;;;;;;5.75;1.00;;;;;;;21.28;nan;100304.56;5029073;28;20045;-73
2022/06/29 01:31:23;;;;;;;2.75;0.90;;;;;;;21.25;nan;100307.72;5028868;28;20061;-73
2022/06/29 01:33:48;;;;;;;2.63;1.00;;;;;;;21.25;nan;100308.53;5027140;28;20056;-73
2022/06/29 01:36:15;;;;;;;1.73;0.90;;;;;;;21.26;nan;100306.66;5028248;28;20634;-73
2022/06/29 01:38:42;;;;;;;3.47;1.45;;;;;;;21.25;nan;100297.78;5027550;28;20708;-73
2022/06/29 01:41:10;;;;;;;2.53;1.20;;;;;;;21.27;nan;100301.06;5030169;28;20037;-73
2022/06/29 01:43:36;;;;;;;7.57;2.78;;;;;;;21.25;nan;100295.09;5028639;28;20095;-73
2022/06/29 01:46:02;;;;;;;12.23;4.80;;;;;;;21.23;nan;100290.97;5028417;28;20033;-73
2022/06/29 01:48:27;;;;;;;13.45;4.55;;;;;;;21.16;nan;100286.50;5027462;28;20113;-73
2022/06/29 01:50:53;;;;;;;16.88;6.50;;;;;;;21.19;nan;100287.94;5028433;28;20056;-73
2022/06/29 01:53:18;;;;;;;8.63;3.08;;;;;;;21.21;nan;100285.81;5028373;28;20041;-73
2022/06/29 01:55:44;;;;;;;4.38;1.90;;;;;;;21.20;nan;100282.31;5028646;28;20037;-73
2022/06/29 01:58:10;;;;;;;3.25;1.30;;;;;;;21.19;nan;100279.88;5027924;28;20108;-73
2022/06/29 02:00:35;;;;;;;2.50;1.17;;;;;;;21.17;nan;100276.59;5029743;28;20037;-73
2022/06/29 02:03:01;;;;;;;1.73;1.05;;;;;;;21.15;nan;100273.31;5028763;28;20157;-74
2022/06/29 02:05:26;;;;;;;3.67;1.58;;;;;;;21.15;nan;100276.81;5028968;28;20037;-73
2022/06/29 02:07:51;;;;;;;10.50;3.88;;;;;;;21.15;nan;100279.50;5028650;28;20037;-73
2022/06/29 02:10:17;;;;;;;15.05;4.80;;;;;;;21.16;nan;100274.94;5027739;28;20384;-73
2022/06/29 02:12:42;;;;;;;10.77;4.18;;;;;;;21.18;nan;100275.53;5027943;28;20033;-74
2022/06/29 02:15:08;;;;;;;8.23;3.22;;;;;;;21.17;nan;100271.22;5028111;28;20034;-73
2022/06/29 02:17:34;;;;;;;5.22;2.30;;;;;;;21.16;nan;100270.38;5026738;28;20041;-72
2022/06/29 02:19:59;;;;;;;4.18;1.60;;;;;;;21.15;nan;100268.75;5028449;28;20034;-73
2022/06/29 02:22:24;;;;;;;3.50;1.40;;;;;;;21.17;nan;100276.59;5025926;28;20132;-73
2022/06/29 02:24:50;;;;;;;2.00;1.17;;;;;;;21.13;nan;100275.41;5028152;28;20041;-73
2022/06/29 02:27:15;;;;;;;1.35;0.82;;;;;;;21.12;nan;100273.78;5028355;28;20280;-73
2022/06/29 02:29:40;;;;;;;2.40;0.90;;;;;;;21.10;nan;100274.00;5028772;28;20069;-73
2022/06/29 02:34:50;;;;;;;1.77;0.90;;;;;;;21.12;nan;100281.84;5027946;28;20099;-73
2022/06/29 02:37:16;;;;;;;2.13;0.90;;;;;;;21.12;nan;100277.28;5029070;28;20029;-73
2022/06/29 02:39:42;;;;;;;1.50;0.90;;;;;;;21.14;nan;100272.50;5027115;28;20068;-73
2022/06/29 02:42:09;;;;;;;1.27;0.85;;;;;;;21.13;nan;100278.09;5025293;28;20477;-74
2022/06/29 02:44:34;;;;;;;1.63;0.90;;;;;;;21.15;nan;100284.88;5038436;28;20307;-73
2022/06/29 02:47:00;;;;;;;2.23;1.00;;;;;;;21.15;nan;100273.31;5029927;28;20044;-73
2022/06/29 02:49:25;;;;;;;1.08;0.70;;;;;;;21.16;nan;100275.75;5027805;28;20809;-73
2022/06/29 02:51:50;;;;;;;1.38;0.70;;;;;;;21.17;nan;100271.22;5026415;28;20096;-73
2022/06/29 02:54:15;;;;;;;1.33;0.80;;;;;;;21.18;nan;100276.34;5026575;28;20573;-74
2022/06/29 02:56:41;;;;;;;1.63;0.88;;;;;;;21.21;nan;100272.38;5042268;28;20106;-73
2022/06/29 02:59:06;;;;;;;1.80;0.90;;;;;;;21.23;nan;100274.84;5027591;28;20257;-73
2022/06/29 03:01:32;;;;;;;1.83;1.00;;;;;;;21.21;nan;100267.84;5025897;28;20292;-74
2022/06/29 03:03:57;;;;;;;3.10;1.30;;;;;;;21.20;nan;100271.56;5026804;28;20259;-73
2022/06/29 03:06:23;;;;;;;2.28;1.10;;;;;;;21.19;nan;100275.31;5027043;28;20124;-73
2022/06/29 03:08:48;;;;;;;1.73;1.10;;;;;;;21.19;nan;100271.81;5027596;28;20123;-73
2022/06/29 03:11:14;;;;;;;1.80;1.10;;;;;;;21.17;nan;100271.22;5026063;28;20092;-73
2022/06/29 03:13:39;;;;;;;1.60;1.30;;;;;;;21.17;nan;100268.53;5027289;28;20033;-73
2022/06/29 03:16:04;;;;;;;2.47;0.90;;;;;;;21.18;nan;100267.47;5027593;28;20029;-74
2022/06/29 03:18:29;;;;;;;2.28;1.30;;;;;;;21.19;nan;100271.81;5025513;28;20462;-73
2022/06/29 03:20:55;;;;;;;1.77;1.10;;;;;;;21.18;nan;100270.97;5027616;28;20030;-73
2022/06/29 03:23:20;;;;;;;2.20;1.30;;;;;;;21.20;nan;100276.13;5025548;28;20076;-73
2022/06/29 03:25:45;;;;;;;1.75;1.10;;;;;;;21.18;nan;100267.47;5027300;28;20064;-73
2022/06/29 03:28:11;;;;;;;2.63;1.20;;;;;;;21.16;nan;100267.69;5027029;28;20120;-74
2022/06/29 03:30:36;;;;;;;1.88;1.15;;;;;;;21.11;nan;100267.56;5026440;28;20045;-72
2022/06/29 03:33:01;;;;;;;3.30;1.40;;;;;;;21.12;nan;100271.09;5026933;28;20033;-73
2022/06/29 03:35:26;;;;;;;3.80;1.20;;;;;;;21.12;nan;100271.91;5026401;28;20036;-73
2022/06/29 03:37:52;;;;;;;2.38;1.30;;;;;;;21.11;nan;100267.56;5027544;28;20037;-73
2022/06/29 03:40:17;;;;;;;1.85;1.15;;;;;;;21.12;nan;100271.09;5026929;28;20384;-74
2022/06/29 03:42:42;;;;;;;2.38;1.30;;;;;;;21.12;nan;100265.72;5024812;28;20513;-73
2022/06/29 03:45:08;;;;;;;1.50;1.17;;;;;;;21.11;nan;100275.63;5027491;28;20064;-74
2022/06/29 03:47:34;;;;;;;1.80;1.20;;;;;;;21.14;nan;100277.03;5028601;28;20049;-73
2022/06/29 03:49:59;;;;;;;1.30;1.00;;;;;;;21.16;nan;100272.25;5027580;28;20037;-73
2022/06/29 03:52:25;;;;;;;1.95;1.20;;;;;;;21.18;nan;100278.22;5028496;28;20060;-73
2022/06/29 03:54:50;;;;;;;1.63;1.15;;;;;;;21.19;nan;100274.50;5028626;28;20126;-73
2022/06/29 03:57:15;;;;;;;1.80;1.20;;;;;;;21.19;nan;100271.81;5027468;28;20529;-73
2022/06/29 03:59:41;;;;;;;1.48;1.00;;;;;;;21.17;nan;100272.03;5027379;28;20037;-73
2022/06/29 04:02:06;;;;;;;1.98;1.10;;;;;;;21.15;nan;100276.00;5028141;28;20932;-73
2022/06/29 04:04:32;;;;;;;1.60;1.00;;;;;;;21.15;nan;100276.00;5029692;28;20034;-73
2022/06/29 04:06:57;;;;;;;1.70;1.00;;;;;;;21.14;nan;100272.50;5029123;28;20233;-73
2022/06/29 04:09:22;;;;;;;1.30;0.90;;;;;;;21.16;nan;100277.63;5028081;28;20030;-73
2022/06/29 04:11:54;;;;;;;1.77;1.10;;;;;;;21.13;nan;100273.53;5029167;28;20645;-73
2022/06/29 04:14:24;;;;;;;1.48;0.90;;;;;;;21.13;nan;100267.34;5026413;28;20042;-74
2022/06/29 04:16:51;;;;;;;2.13;1.07;;;;;;;21.13;nan;100264.66;5025852;28;20069;-73
2022/06/29 04:19:16;;;;;;;1.20;0.90;;;;;;;21.13;nan;100260.09;5029411;28;20418;-73
2022/06/29 04:21:42;;;;;;;1.45;0.80;;;;;;;21.12;nan;100253.06;5028904;28;20043;-73
2022/06/29 04:24:07;;;;;;;1.30;0.90;;;;;;;21.12;nan;100254.94;5030098;28;20038;-73
2022/06/29 04:26:33;;;;;;;2.30;1.17;;;;;;;21.10;nan;100257.84;5029217;28;20057;-73
2022/06/29 04:28:58;;;;;;;1.88;1.15;;;;;;;21.08;nan;100251.06;5030180;28;20041;-73
2022/06/29 04:31:23;;;;;;;2.28;1.30;;;;;;;21.00;nan;100250.34;5030879;28;20558;-73
2022/06/29 04:33:49;;;;;;;2.35;1.25;;;;;;;20.95;nan;100249.34;5030154;28;20034;-73
2022/06/29 04:36:14;;;;;;;3.05;1.40;;;;;;;20.94;nan;100250.41;5030374;28;20038;-73
2022/06/29 04:38:39;;;;;;;2.10;1.38;;;;;;;20.88;nan;100257.53;5030450;28;20120;-73
2022/06/29 04:41:05;;;;;;;2.17;1.25;;;;;;;20.88;nan;100249.47;5031197;28;20124;-74
2022/06/29 04:43:30;;;;;;;2.92;1.35;;;;;;;20.85;nan;100257.16;5027801;28;20390;-73
2022/06/29 04:48:40;;;;;;;2.70;1.30;;;;;;;20.84;nan;100256.34;5027880;28;20533;-74
2022/06/29 04:51:06;;;;;;;2.10;1.10;;;;;;;20.84;nan;100259.03;5024892;28;20037;-73
2022/06/29 04:53:31;;;;;;;2.53;1.30;;;;;;;20.85;nan;100257.16;5029657;28;20400;-73
2022/06/29 04:55:56;;;;;;;1.83;1.30;;;;;;;20.86;nan;100258.81;5028892;28;20426;-73
2022/06/29 04:58:22;;;;;;;3.05;1.52;;;;;;;20.83;nan;100259.22;5029564;28;20116;-74
2022/06/29 05:00:47;;;;;;;1.75;1.27;;;;;;;20.85;nan;100252.59;5029604;28;20033;-74
2022/06/29 05:03:12;;;;;;;2.53;1.23;;;;;;;20.88;nan;100252.16;5029348;28;20029;-73
2022/06/29 05:05:38;;;;;;;3.80;1.20;;;;;;;20.92;nan;100258.69;5031804;28;20037;-73
2022/06/29 05:08:03;;;;;;;1.30;1.00;;;;;;;20.96;nan;100249.13;5029622;28;20092;-74
2022/06/29 05:10:30;;;;;;;2.25;1.33;;;;;;;21.00;nan;100249.53;5029094;28;20589;-73
2022/06/29 05:12:55;;;;;;;3.22;1.15;;;;;;;20.98;nan;100249.75;5029674;28;20533;-74
2022/06/29 05:15:20;;;;;;;2.13;1.37;;;;;;;21.01;nan;100253.84;5028533;28;20156;-74
2022/06/29 05:17:47;;;;;;;2.47;1.40;;;;;;;20.94;nan;100263.84;5029927;28;20314;-73
2022/06/29 05:20:13;;;;;;;2.13;1.40;;;;;;;20.97;nan;100263.41;5027765;28;20281;-73
2022/06/29 05:22:38;;;;;;;1.40;1.08;;;;;;;21.04;nan;100263.31;5029173;28;20142;-74
2022/06/29 05:25:04;;;;;;;1.85;1.10;;;;;;;21.09;nan;100258.88;5028779;28;20422;-74
2022/06/29 05:27:29;;;;;;;3.13;1.42;;;;;;;21.09;nan;100266.13;5028708;28;20126;-74
2022/06/29 05:29:54;;;;;;;2.63;1.30;;;;;;;21.07;nan;100263.69;5029265;28;20415;-73
2022/06/29 05:32:20;;;;;;;2.38;1.30;;;;;;;21.06;nan;100271.97;5030500;28;20167;-73
2022/06/29 05:34:45;;;;;;;2.30;1.30;;;;;;;21.09;nan;100272.34;5029164;28;20036;-73
2022/06/29 05:37:10;;;;;;;2.43;1.27;;;;;;;21.12;nan;100261.16;5028819;28;20104;-74
2022/06/29 05:39:36;;;;;;;2.33;1.27;;;;;;;21.18;nan;100267.47;5030850;28;20288;-73
2022/06/29 05:42:01;;;;;;;3.45;1.30;;;;;;;21.19;nan;100264.56;5029945;28;20101;-74
2022/06/29 05:44:26;;;;;;;1.63;1.05;;;;;;;21.20;nan;100271.56;5028923;28;20048;-74
2022/06/29 05:46:52;;;;;;;2.30;1.40;;;;;;;21.18;nan;100267.47;5027851;28;20037;-73
2022/06/29 05:49:17;;;;;;;2.20;1.35;;;;;;;21.17;nan;100266.66;5028562;28;20067;-73
2022/06/29 05:51:42;;;;;;;2.75;1.90;;;;;;;21.10;nan;100265.91;5028059;28;20034;-72
2022/06/29 05:54:08;;;;;;;2.55;1.40;;;;;;;21.06;nan;100266.59;5028147;28;20083;-74
2022/06/29 05:56:33;;;;;;;2.85;1.40;;;;;;;21.03;nan;100254.44;5027883;28;20056;-73
2022/06/29 05:58:58;;;;;;;1.65;1.20;;;;;;;21.10;nan;100259.72;5027036;28;20053;-74
2022/06/29 06:01:24;;;;;;;1.80;1.20;;;;;;;21.23;nan;100266.78;5028741;28;20060;-74
2022/06/29 06:03:49;;;;;;;3.15;1.20;;;;;;;21.29;nan;100266.69;5026718;28;20033;-73
2022/06/29 06:06:15;;;;;;;2.25;1.40;;;;;;;21.34;nan;100261.44;5029125;28;20072;-73
2022/06/29 06:08:40;;;;;;;1.83;1.00;;;;;;;21.45;nan;100269.81;5027609;28;20502;-73
2022/06/29 06:11:05;;;;;;;1.70;1.20;;;;;;;21.55;nan;100267.41;5027537;28;20034;-73
2022/06/29 06:13:31;;;;;;;1.73;1.10;;;;;;;21.61;nan;100267.25;5027650;28;20033;-73
2022/06/29 06:15:56;;;;;;;2.53;1.20;;;;;;;21.69;nan;100259.91;5028349;28;20957;-73
2022/06/29 06:18:21;;;;;;;1.77;0.90;;;;;;;21.82;nan;100265.91;5028087;28;20053;-74
2022/06/29 06:20:47;;;;;;;1.90;1.17;;;;;;;21.92;nan;100265.31;5027295;28;20037;-73
2022/06/29 06:23:12;;;;;;;2.72;1.27;;;;;;;21.99;nan;100267.91;5028238;28;20494;-74
2022/06/29 06:25:37;;;;;;;1.73;1.30;;;;;;;22.09;nan;100265.44;5026989;28;20603;-74
2022/06/29 06:28:05;;;;;;;2.75;1.20;;;;;;;22.27;nan;100270.75;5028144;28;20061;-73
2022/06/29 06:30:30;;;;;;;1.65;1.10;;;;;;;22.42;nan;100270.25;5027411;28;20032;-73
2022/06/29 06:32:56;;;;;;;1.92;1.10;;;;;;;22.51;nan;100276.13;5027626;28;20033;-74
2022/06/29 06:35:21;;;;;;;2.00;1.10;;;;;;;22.65;nan;100276.69;5028453;28;20529;-74
2022/06/29 06:37:47;;;;;;;1.73;1.15;;;;;;;22.83;nan;100286.47;5027027;28;20391;-74
2022/06/29 06:42:58;;;;;;;1.85;1.20;;;;;;;23.05;nan;100286.69;5025964;28;20064;-74
2022/06/29 06:45:23;;;;;;;2.30;1.33;;;;;;;23.21;nan;100283.19;5027679;28;20478;-74
2022/06/29 06:47:49;;;;;;;2.35;1.40;;;;;;;23.41;nan;100290.88;5029731;28;20041;-74
2022/06/29 06:50:14;;;;;;;1.50;1.10;;;;;;;23.54;nan;100295.13;5029401;28;20037;-73
2022/06/29 06:52:41;;;;;;;2.00;1.27;;;;;;;23.60;nan;100291.47;5027305;28;20040;-74
2022/06/29 06:55:06;;;;;;;1.83;1.25;;;;;;;23.65;nan;100296.13;5025341;28;20033;-73
2022/06/29 06:57:32;;;;;;;2.03;1.20;;;;;;;23.85;nan;100299.19;5019943;28;20410;-73
2022/06/29 06:59:57;;;;;;;3.63;1.13;;;;;;;24.09;nan;100291.72;5025233;28;20148;-74
2022/06/29 07:02:22;;;;;;;2.10;1.20;;;;;;;24.28;nan;100278.78;5026080;28;20382;-73
2022/06/29 07:04:48;;;;;;;2.30;1.30;;;;;;;24.45;nan;100278.72;5025194;28;20299;-73
2022/06/29 07:07:14;;;;;;;2.72;1.30;;;;;;;24.48;nan;100269.34;5027375;28;20033;-74
2022/06/29 07:09:39;;;;;;;2.08;1.30;;;;;;;24.62;nan;100278.72;5027119;28;20056;-74
2022/06/29 07:12:05;;;;;;;2.92;1.20;;;;;;;24.83;nan;100278.97;5027098;28;20110;-74
2022/06/29 07:14:30;;;;;;;2.58;1.13;;;;;;;25.05;nan;100281.66;5007443;28;20034;-74
2022/06/29 07:16:56;;;;;;;1.90;1.23;;;;;;;25.59;nan;100274.38;5014809;28;20040;-73
2022/06/29 07:19:22;;;;;;;3.05;1.33;;;;;;;26.22;nan;100279.22;5027736;28;20048;-73
2022/06/29 07:21:47;;;;;;;2.20;1.10;;;;;;;26.78;nan;100281.41;5027661;28;20068;-74
2022/06/29 07:24:12;;;;;;;1.45;0.90;;;;;;;27.37;nan;100280.25;5028025;28;20518;-75
2022/06/29 07:26:37;;;;;;;2.95;1.08;;;;;;;28.01;nan;100287.06;5027509;28;20046;-76
2022/06/29 07:29:03;;;;;;;1.80;1.00;;;;;;;28.53;nan;100291.31;5028033;28;20084;-74
2022/06/29 07:31:28;;;;;;;1.23;0.98;;;;;;;28.94;nan;100288.47;5027813;28;20080;-76
2022/06/29 07:33:54;;;;;;;2.40;1.00;;;;;;;29.52;nan;100285.13;5023012;28;20411;-74
2022/06/29 07:36:19;;;;;;;;;;;;;;;29.70;nan;100281.75;5026765;28;20040;-75
2022/06/29 07:38:44;;;;;;;;;;;;;;;30.08;nan;100292.81;5027052;28;19925;-76
2022/06/29 07:41:09;;;;;;;4.10;1.30;;;;;;;30.56;nan;100283.88;5027712;28;19976;-75
2022/06/29 07:43:35;;;;;;;1.30;0.80;;;;;;;31.23;nan;100289.31;5026371;28;20443;-75
2022/06/29 07:46:00;;;;;;;1.40;1.00;;;;;;;31.76;nan;100280.84;5026139;28;20443;-76
2022/06/29 07:48:25;;;;;;;1.67;1.00;;;;;;;32.41;nan;100287.34;5027854;28;20399;-76
2022/06/29 07:50:51;;;;;;;2.10;1.27;;;;;;;32.75;nan;100284.19;5024726;28;20500;-76
2022/06/29 07:53:17;;;;;;;;;;;;;;;31.86;nan;100282.59;5028867;28;20045;-75
2022/06/29 07:55:44;;;;;;;;;;;;;;;31.78;nan;100284.09;5029437;28;20111;-75
2022/06/29 07:58:10;;;;;;;;;;;;;;;32.01;nan;100273.31;5028660;28;20358;-75
2022/06/29 08:00:36;;;;;;;;;;;;;;;32.14;nan;100272.53;5030485;28;20409;-75
2022/06/29 08:03:02;;;;;;;;;;;;;;;31.83;nan;100273.06;5029502;28;19917;-76
2022/06/29 08:05:28;;;;;;;;;;;;;;;32.42;nan;100280.75;5031103;28;20015;-76
2022/06/29 08:07:53;;;;;;;;;;;;;;;33.33;nan;100272.53;5029634;28;20374;-75
2022/06/29 08:10:19;;;;;;;;;;;;;;;33.85;nan;100269.34;5032138;28;20012;-75
2022/06/29 08:12:44;;;;;;;;;;;;;;;34.31;nan;100267.31;5029726;28;19917;-75
2022/06/29 08:15:10;;;;;;;2.90;1.40;;;;;;;34.67;nan;100276.16;5030027;28;20016;-76
2022/06/29 08:17:35;;;;;;;3.10;1.70;;;;;;;34.88;nan;100276.38;5028139;28;20120;-77
2022/06/29 08:20:03;;;;;;;2.70;1.70;;;;;;;35.12;nan;100272.38;5029088;28;20049;-76
2022/06/29 08:22:29;;;;;;;3.30;1.40;;;;;;;35.34;nan;100263.16;5028606;28;20041;-76
2022/06/29 08:24:54;;;;;;;3.15;1.83;;;;;;;35.62;nan;100269.13;5030949;28;20049;-75
2022/06/29 08:27:22;;;;;;;2.85;1.70;;;;;;;35.74;nan;100262.94;5031925;28;20423;-76
2022/06/29 08:29:48;;;;;;;3.75;1.88;;;;;;;35.68;nan;100267.00;5032167;28;20034;-75
2022/06/29 08:32:14;;;;;;;2.67;1.63;;;;;;;35.91;nan;100256.56;5031289;28;20045;-76
2022/06/29 08:34:39;;;;;;;3.25;1.83;;;;;;;36.14;nan;100260.72;5030926;28;20025;-76
2022/06/29 08:37:05;;;;;;;2.28;1.70;;;;;;;36.54;nan;100268.63;5031640;28;20037;-75
2022/06/29 08:39:30;;;;;;;2.90;2.00;;;;;;;36.20;nan;100255.03;5032637;28;20044;-75
2022/06/29 08:42:04;;;;;;;2.17;1.40;;;;;;;36.44;nan;100260.72;5041114;28;20061;-75
2022/06/29 08:44:32;;;;;;;4.28;1.75;;;;;;;36.77;nan;100255.38;5023668;28;20044;-76
2022/06/29 08:46:58;;;;;;;3.47;1.83;;;;;;;36.97;nan;100258.44;5031719;28;20457;-76
2022/06/29 08:49:24;;;;;;;3.60;2.08;;;;;;;37.10;nan;100259.38;5029793;28;20557;-75
2022/06/29 08:51:51;;;;;;;3.88;2.03;;;;;;;37.12;nan;100262.59;5031356;28;20125;-75
2022/06/29 08:54:18;;;;;;;5.45;2.20;;;;;;;37.07;nan;100263.63;5030834;28;20033;-75
2022/06/29 08:56:44;;;;;;;3.80;2.10;;;;;;;37.79;nan;100261.47;5030698;28;20033;-75
2022/06/29 08:59:10;;;;;;;4.18;1.90;;;;;;;38.22;nan;100254.63;5031125;28;20037;-76
2022/06/29 09:01:36;;;;;;;3.08;1.80;;;;;;;38.37;nan;100258.66;5031484;28;20045;-76
2022/06/29 09:04:02;;;;;;;3.60;2.10;;;;;;;38.57;nan;100259.72;5030211;28;20534;-76
2022/06/29 09:06:27;;;;;;;3.90;2.17;;;;;;;38.83;nan;100264.84;5027521;28;20513;-76
2022/06/29 09:08:53;;;;;;;4.03;2.60;;;;;;;38.80;nan;100256.44;5030009;28;20091;-76
2022/06/29 09:11:28;;;;;;;5.38;2.60;;;;;;;38.36;nan;100267.31;5031431;28;20053;-76
2022/06/29 09:14:14;;;;;;;2.95;1.80;;;;;;;38.49;nan;100262.59;5031198;28;20120;-76
2022/06/29 09:16:48;;;;;;;4.78;2.20;;;;;;;38.04;nan;100256.00;5009119;28;20259;-76
2022/06/29 09:19:14;;;;;;;3.20;2.20;;;;;;;37.32;nan;100255.44;5008846;28;20038;-75
2022/06/29 09:21:51;;;;;;;3.15;2.00;;;;;;;37.53;nan;100259.00;5023890;28;20048;-75
2022/06/29 09:24:21;;;;;;;4.60;2.10;;;;;;;37.34;nan;100258.66;5028481;28;20366;-75
2022/06/29 09:26:50;;;;;;;;;;;;;;;37.51;nan;100254.94;5026850;28;20033;-76
2022/06/29 09:29:21;;;;;;;3.55;2.00;;;;;;;39.06;nan;100253.28;5027938;28;20298;-75
2022/06/29 09:32:01;;;;;;;;;;;;;;;39.57;nan;100250.75;5027562;28;20026;-77
2022/06/29 09:34:28;;;;;;;4.63;2.30;;;;;;;38.71;nan;100253.00;5029955;28;20050;-76
2022/06/29 09:36:58;;;;;;;2.45;1.70;;;;;;;38.01;nan;100271.28;5028861;28;20029;-76
2022/06/29 09:39:35;;;;;;;2.53;1.70;;;;;;;37.24;nan;100257.13;5033774;28;20148;-76
2022/06/29 09:42:02;;;;;;;3.65;2.15;;;;;;;36.33;nan;100254.81;5021825;28;20045;-75
2022/06/29 09:44:28;;;;;;;3.45;2.15;;;;;;;35.64;nan;100261.34;5027920;28;20049;-74
2022/06/29 09:46:55;;;;;;;3.80;2.45;;;;;;;35.17;nan;100252.16;5027306;28;20068;-76
2022/06/29 09:49:26;;;;;;;3.40;2.20;;;;;;;35.07;nan;100247.78;5026807;28;20036;-74
2022/06/29 09:51:57;;;;;;;4.05;2.50;;;;;;;34.92;nan;100251.81;5027251;28;20037;-75
2022/06/29 09:54:49;;;;;;;;;;;;;;;34.36;nan;100250.72;5042374;28;20037;-75
2022/06/29 09:57:19;;;;;;;3.90;2.45;;;;;;;35.57;nan;100241.75;5037923;28;20325;-75
2022/06/29 10:02:34;;;;;;;4.50;2.42;;;;;;;38.75;nan;100246.41;5041575;28;20036;-75
2022/06/29 10:05:54;;;;;;;3.30;2.20;;;;;;;38.28;nan;100243.34;5042740;28;20486;-75
2022/06/29 10:08:11;;;;;;;3.42;2.40;;;;;;;37.05;nan;100252.09;5038276;28;20368;-74
2022/06/29 10:10:37;;;;;;;4.75;2.70;;;;;;;37.57;nan;100245.34;5028869;28;20038;-76
2022/06/29 10:16:35;;;;;;;3.67;1.77;;;;;;;40.31;nan;100244.75;5035754;28;20059;-76
2022/06/29 10:19:19;;;;;;;4.68;2.60;;;;;;;40.48;nan;100249.09;5026231;28;20673;-76
2022/06/29 10:21:44;;;;;;;3.28;2.05;;;;;;;41.27;nan;100254.34;5028791;28;20032;-76
2022/06/29 10:24:09;;;;;;;3.70;2.70;;;;;;;41.92;nan;100242.44;5029803;28;20037;-77
2022/06/29 10:26:38;;;;;;;5.10;2.50;;;;;;;42.65;nan;100236.84;5032490;28;20037;-76
2022/06/29 10:29:06;;;;;;;2.90;2.40;;;;;;;42.82;nan;100239.06;5029966;28;20398;-77
2022/06/29 10:31:50;;;;;;;5.25;2.47;;;;;;;42.39;nan;100235.69;5028505;28;20107;-75
2022/06/29 10:34:31;;;;;;;3.38;2.22;;;;;;;42.72;nan;100231.38;5027344;28;21315;-76
2022/06/29 10:37:15;;;;;;;4.72;2.38;;;;;;;43.32;nan;100233.28;5025821;28;20045;-76
2022/06/29 10:39:49;;;;;;;3.40;1.90;;;;;;;43.48;nan;100230.28;5030268;28;20037;-76
2022/06/29 10:45:09;;;;;;;5.03;2.53;;;;;;;44.24;nan;100226.97;5031765;28;20576;-76
2022/06/29 10:47:35;;;;;;;2.78;2.10;;;;;;;44.77;nan;100227.63;5031482;28;20521;-76
2022/06/29 10:50:29;;;;;;;3.13;2.15;;;;;;;45.46;nan;100223.88;5028388;28;20480;-77
2022/06/29 10:52:57;;;;;;;4.78;2.50;;;;;;;45.43;nan;100216.28;5027103;28;20033;-74
2022/06/29 10:55:25;;;;;;;3.00;2.40;;;;;;;44.87;nan;100218.53;5027859;28;20029;-74
2022/06/29 10:57:51;;;;;;;3.75;2.42;;;;;;;44.38;nan;100214.28;5027006;28;20061;-74
2022/06/29 11:00:20;;;;;;;3.10;2.10;;;;;;;43.05;nan;100218.66;5026969;28;20061;-73
2022/06/29 11:02:45;;;;;;;4.95;3.05;;;;;;;41.45;nan;100218.59;5025569;28;20056;-74
2022/06/29 11:05:11;;;;;;;3.07;2.50;;;;;;;40.41;nan;100218.44;5026563;28;20025;-73
2022/06/29 11:13:11;;;;;;;4.82;2.70;;;;;;;37.92;nan;100201.56;5029094;28;20565;-75
2022/06/29 11:15:41;;;;;;;3.72;3.08;;;;;;;36.77;nan;100207.72;5044980;28;20415;-75
2022/06/29 11:18:13;;;;;;;3.72;2.75;;;;;;;35.93;nan;100196.53;5027964;28;20041;-75
2022/06/29 11:20:40;;;;;;;2.83;2.35;;;;;;;35.88;nan;100193.97;5028389;28;20072;-75
2022/06/29 11:23:10;;;;;;;3.78;2.60;;;;;;;37.09;nan;100197.09;5028182;28;20204;-76
2022/06/29 11:25:37;;;;;;;3.20;2.70;;;;;;;38.73;nan;100195.41;5033878;28;20038;-76
2022/06/29 11:28:03;;;;;;;3.33;2.70;;;;;;;39.31;nan;100201.44;5044261;28;20379;-75
2022/06/29 11:30:29;;;;;;;3.53;2.83;;;;;;;41.33;nan;100196.56;5040658;28;20041;-75
2022/06/29 11:32:54;;;;;;;3.33;2.50;;;;;;;42.33;nan;100194.66;5035467;28;20155;-76
2022/06/29 11:35:22;;;;;;;3.17;2.30;;;;;;;42.74;nan;100186.47;5029044;28;20045;-75
2022/06/29 11:37:50;;;;;;;5.13;2.60;;;;;;;42.88;nan;100185.88;5026511;28;20045;-76
2022/06/29 11:40:43;;;;;;;3.78;2.70;;;;;;;43.16;nan;100188.97;5034454;28;20087;-77
2022/06/29 11:43:10;;;;;;;2.95;2.20;;;;;;;43.97;nan;100187.31;5047443;28;20533;-76
2022/06/29 11:45:47;;;;;;;2.53;2.03;;;;;;;45.05;nan;100187.88;5032881;28;20087;-76
2022/06/29 11:48:15;;;;;;;4.13;2.30;;;;;;;45.58;nan;100191.97;5033161;28;20101;-74
2022/06/29 11:50:44;;;;;;;2.63;2.13;;;;;;;45.93;nan;100189.16;5031969;28;20187;-74
2022/06/29 11:53:10;;;;;;;2.90;2.58;;;;;;;45.69;nan;100190.78;5026661;28;20498;-73
2022/06/29 11:55:44;;;;;;;3.05;2.40;;;;;;;45.95;nan;100185.97;5035095;28;20055;-73
2022/06/29 11:58:14;;;;;;;3.67;2.58;;;;;;;45.54;nan;100187.19;5027417;28;20068;-74
2022/06/29 12:00:39;;;;;;;4.80;2.67;;;;;;;45.68;nan;100182.81;5031955;28;20041;-73
2022/06/29 12:03:06;;;;;;;3.30;2.22;;;;;;;45.27;nan;100178.41;5026893;28;20056;-73
2022/06/29 12:05:31;;;;;;;3.17;2.42;;;;;;;45.43;nan;100174.41;5028251;28;20034;-76